createdAt,value
2023-04-19T00:00:04.473Z,11.25
2023-04-19T00:01:04.469Z,11.38
2023-04-19T00:02:04.531Z,11.31
2023-04-19T00:03:03.668Z,11.31
2023-04-19T00:04:03.573Z,11.31
2023-04-19T00:05:03.624Z,11.31
2023-04-19T00:06:03.600Z,11.38
2023-04-19T00:07:03.689Z,11.25
2023-04-19T00:08:03.670Z,11.31
2023-04-19T00:09:03.677Z,11.31
2023-04-19T00:10:03.999Z,11.38
2023-04-19T00:11:03.924Z,11.25
2023-04-19T00:12:03.761Z,11.31
2023-04-19T00:13:03.755Z,11.31
2023-04-19T00:14:03.836Z,11.31
2023-04-19T00:15:03.602Z,11.25
2023-04-19T00:16:03.594Z,11.31
2023-04-19T00:17:03.682Z,11.38
2023-04-19T00:18:03.655Z,11.44
2023-04-19T00:19:03.589Z,11.38
2023-04-19T00:20:03.691Z,11.19
2023-04-19T00:21:03.751Z,11.19
2023-04-19T00:22:03.604Z,11.06
2023-04-19T00:23:04.069Z,11.06
2023-04-19T00:24:04.168Z,11.19
2023-04-19T00:25:04.240Z,11.19
2023-04-19T00:26:04.151Z,11.12
2023-04-19T00:27:04.240Z,11.19
2023-04-19T00:28:04.242Z,11.12
2023-04-19T00:29:04.337Z,11.00
2023-04-19T00:30:04.227Z,11.12
2023-04-19T00:31:04.449Z,11.06
2023-04-19T00:32:04.314Z,11.00
2023-04-19T00:33:04.376Z,11.00
2023-04-19T00:34:04.413Z,10.88
2023-04-19T00:35:04.711Z,10.81
2023-04-19T00:36:03.675Z,10.75
2023-04-19T00:37:03.587Z,10.62
2023-04-19T00:38:03.761Z,10.62
2023-04-19T00:39:03.675Z,10.56
2023-04-19T00:40:04.068Z,10.62
2023-04-19T00:41:03.995Z,10.62
2023-04-19T00:42:04.074Z,10.62
2023-04-19T00:43:04.067Z,10.62
2023-04-19T00:44:04.095Z,10.62
2023-04-19T00:45:04.155Z,10.69
2023-04-19T00:46:04.131Z,10.69
2023-04-19T00:47:04.170Z,10.81
2023-04-19T00:48:04.272Z,10.88
2023-04-19T00:49:04.155Z,10.81
2023-04-19T00:50:04.240Z,10.88
2023-04-19T00:51:04.794Z,10.88
2023-04-19T00:52:03.751Z,10.75
2023-04-19T00:53:04.493Z,10.75
2023-04-19T00:54:04.565Z,10.69
2023-04-19T00:55:03.516Z,10.81
2023-04-19T00:56:03.595Z,10.69
2023-04-19T00:57:03.453Z,10.88
2023-04-19T00:58:04.626Z,11.00
2023-04-19T00:59:03.597Z,11.12
2023-04-19T01:00:03.923Z,11.00
2023-04-19T01:01:03.977Z,10.88
2023-04-19T01:02:04.173Z,10.94
2023-04-19T01:03:04.345Z,10.94
2023-04-19T01:04:04.304Z,10.88
2023-04-19T01:05:04.234Z,10.88
2023-04-19T01:06:04.317Z,10.88
2023-04-19T01:07:05.288Z,10.88
2023-04-19T01:08:04.223Z,10.81
2023-04-19T01:09:04.410Z,10.75
2023-04-19T01:10:04.417Z,10.75
2023-04-19T01:11:04.404Z,10.75
2023-04-19T01:12:04.379Z,10.88
2023-04-19T01:13:04.315Z,10.81
2023-04-19T01:14:04.317Z,10.81
2023-04-19T01:15:04.386Z,10.75
2023-04-19T01:16:04.403Z,10.69
2023-04-19T01:17:04.385Z,10.69
2023-04-19T01:18:04.503Z,10.69
2023-04-19T01:19:04.330Z,10.69
2023-04-19T01:20:04.298Z,10.69
2023-04-19T01:21:04.318Z,10.62
2023-04-19T01:22:04.320Z,10.69
2023-04-19T01:23:04.400Z,10.62
2023-04-19T01:24:03.586Z,10.62
2023-04-19T01:25:03.543Z,10.62
2023-04-19T01:26:03.606Z,10.56
2023-04-19T01:27:03.596Z,10.44
2023-04-19T01:28:04.383Z,10.50
2023-04-19T01:29:03.528Z,10.50
2023-04-19T01:30:03.529Z,10.44
2023-04-19T01:31:04.498Z,10.31
2023-04-19T01:32:03.511Z,10.31
2023-04-19T01:33:03.570Z,10.25
2023-04-19T01:34:03.514Z,10.31
2023-04-19T01:35:03.608Z,10.38
2023-04-19T01:36:03.589Z,10.44
2023-04-19T01:37:03.600Z,10.50
2023-04-19T01:38:04.227Z,10.56
2023-04-19T01:39:04.230Z,10.62
2023-04-19T01:40:04.321Z,10.69
2023-04-19T01:41:04.231Z,10.69
2023-04-19T01:42:04.333Z,10.56
2023-04-19T01:43:04.304Z,10.62
2023-04-19T01:44:04.389Z,10.75
2023-04-19T01:45:04.403Z,10.75
2023-04-19T01:46:04.301Z,10.81
2023-04-19T01:47:04.371Z,10.81
2023-04-19T01:48:04.349Z,10.88
2023-04-19T01:49:04.396Z,10.62
2023-04-19T01:50:04.390Z,10.62
2023-04-19T01:51:03.516Z,10.50
2023-04-19T01:52:03.837Z,10.50
2023-04-19T01:53:03.914Z,10.50
2023-04-19T01:54:03.919Z,10.44
2023-04-19T01:55:03.930Z,10.44
2023-04-19T01:56:03.910Z,10.62
2023-04-19T01:57:03.825Z,10.50
2023-04-19T01:58:03.919Z,10.44
2023-04-19T01:59:03.924Z,10.44
2023-04-19T02:00:03.853Z,10.44
2023-04-19T02:01:03.951Z,10.50
2023-04-19T02:02:04.041Z,10.38
2023-04-19T02:03:04.213Z,10.44
2023-04-19T02:04:04.108Z,10.38
2023-04-19T02:05:04.077Z,10.50
2023-04-19T02:06:03.980Z,10.44
2023-04-19T02:07:03.995Z,10.38
2023-04-19T02:08:04.090Z,10.44
2023-04-19T02:09:03.997Z,10.44
2023-04-19T02:10:03.985Z,10.31
2023-04-19T02:11:04.153Z,10.31
2023-04-19T02:12:04.070Z,10.25
2023-04-19T02:13:04.014Z,10.12
2023-04-19T02:14:04.093Z,10.19
2023-04-19T02:15:04.083Z,10.19
2023-04-19T02:16:04.188Z,10.25
2023-04-19T02:17:04.076Z,10.25
2023-04-19T02:18:04.262Z,10.12
2023-04-19T02:19:04.235Z,10.06
2023-04-19T02:20:04.238Z,9.94
2023-04-19T02:21:04.161Z,9.94
2023-04-19T02:22:04.061Z,9.88
2023-04-19T02:23:04.170Z,9.94
2023-04-19T02:24:04.158Z,9.88
2023-04-19T02:25:04.159Z,9.88
2023-04-19T02:26:04.160Z,9.81
2023-04-19T02:27:04.157Z,9.94
2023-04-19T02:28:04.064Z,10.00
2023-04-19T02:29:06.343Z,10.00
2023-04-19T02:30:04.162Z,9.94
2023-04-19T02:31:04.309Z,10.00
2023-04-19T02:32:04.441Z,9.94
2023-04-19T02:33:04.262Z,9.94
2023-04-19T02:34:04.322Z,9.94
2023-04-19T02:35:04.391Z,9.94
2023-04-19T02:36:04.481Z,10.00
2023-04-19T02:37:04.395Z,10.00
2023-04-19T02:38:04.513Z,10.06
2023-04-19T02:39:03.525Z,10.06
2023-04-19T02:40:03.438Z,9.88
2023-04-19T02:41:03.546Z,9.75
2023-04-19T02:42:03.550Z,9.62
2023-04-19T02:43:03.423Z,9.62
2023-04-19T02:44:03.600Z,9.69
2023-04-19T02:45:04.467Z,9.56
2023-04-19T02:46:04.427Z,9.44
2023-04-19T02:47:04.401Z,9.44
2023-04-19T02:48:04.437Z,9.50
2023-04-19T02:49:04.465Z,9.69
2023-04-19T02:50:03.511Z,9.75
2023-04-19T02:51:03.510Z,9.62
2023-04-19T02:52:03.513Z,9.56
2023-04-19T02:53:03.508Z,9.50
2023-04-19T02:54:03.595Z,9.44
2023-04-19T02:55:03.685Z,9.31
2023-04-19T02:56:03.593Z,9.25
2023-04-19T02:57:03.693Z,9.12
2023-04-19T02:58:03.598Z,9.12
2023-04-19T02:59:03.760Z,9.12
2023-04-19T03:00:03.679Z,9.12
2023-04-19T03:01:04.352Z,9.06
2023-04-19T03:02:04.375Z,9.06
2023-04-19T03:03:04.492Z,8.94
2023-04-19T03:04:04.432Z,9.06
2023-04-19T03:05:04.382Z,9.06
2023-04-19T03:06:04.401Z,9.12
2023-04-19T03:07:04.389Z,9.12
2023-04-19T03:08:03.501Z,9.12
2023-04-19T03:09:03.507Z,9.06
2023-04-19T03:10:03.522Z,9.00
2023-04-19T03:11:03.508Z,8.88
2023-04-19T03:12:03.664Z,8.81
2023-04-19T03:13:03.598Z,8.81
2023-04-19T03:14:03.669Z,8.88
2023-04-19T03:15:03.590Z,8.94
2023-04-19T03:16:03.729Z,8.94
2023-04-19T03:17:03.766Z,8.94
2023-04-19T03:18:03.767Z,8.94
2023-04-19T03:19:03.672Z,8.94
2023-04-19T03:20:03.754Z,9.00
2023-04-19T03:21:03.834Z,9.06
2023-04-19T03:22:03.826Z,9.31
2023-04-19T03:23:03.818Z,9.19
2023-04-19T03:24:03.825Z,9.19
2023-04-19T03:25:03.862Z,9.00
2023-04-19T03:26:03.846Z,9.12
2023-04-19T03:27:03.824Z,9.00
2023-04-19T03:28:03.741Z,9.19
2023-04-19T03:29:03.977Z,9.06
2023-04-19T03:30:03.893Z,9.06
2023-04-19T03:31:03.963Z,9.19
2023-04-19T03:32:03.907Z,9.19
2023-04-19T03:33:03.956Z,9.12
2023-04-19T03:34:03.806Z,9.06
2023-04-19T03:35:03.910Z,8.81
2023-04-19T03:36:03.915Z,8.62
2023-04-19T03:37:03.686Z,8.62
2023-04-19T03:38:04.473Z,8.56
2023-04-19T03:39:04.375Z,8.50
2023-04-19T03:40:04.476Z,8.44
2023-04-19T03:41:03.498Z,8.38
2023-04-19T03:42:03.420Z,8.44
2023-04-19T03:43:03.583Z,8.44
2023-04-19T03:44:03.602Z,8.38
2023-04-19T03:45:03.500Z,8.31
2023-04-19T03:46:03.524Z,8.38
2023-04-19T03:47:03.516Z,8.38
2023-04-19T03:48:04.487Z,8.38
2023-04-19T03:49:04.463Z,8.25
2023-04-19T03:50:04.377Z,8.31
2023-04-19T03:51:04.384Z,8.25
2023-04-19T03:52:04.309Z,8.25
2023-04-19T03:53:04.459Z,8.25
2023-04-19T03:54:04.367Z,8.25
2023-04-19T03:55:04.450Z,8.31
2023-04-19T03:56:03.493Z,8.38
2023-04-19T03:57:03.498Z,8.44
2023-04-19T03:58:03.576Z,8.50
2023-04-19T03:59:03.673Z,8.38
2023-04-19T04:00:03.672Z,8.38
2023-04-19T04:01:03.647Z,8.38
2023-04-19T04:02:03.829Z,8.50
2023-04-19T04:03:03.879Z,8.44
2023-04-19T04:04:05.047Z,8.44
2023-04-19T04:05:03.930Z,8.44
2023-04-19T04:06:03.970Z,8.38
2023-04-19T04:07:03.895Z,8.31
2023-04-19T04:08:03.974Z,8.25
2023-04-19T04:09:03.995Z,8.19
2023-04-19T04:10:04.081Z,8.12
2023-04-19T04:11:04.059Z,8.12
2023-04-19T04:12:04.056Z,8.25
2023-04-19T04:13:04.132Z,8.19
2023-04-19T04:14:04.224Z,8.12
2023-04-19T04:15:04.205Z,8.06
2023-04-19T04:16:04.403Z,7.94
2023-04-19T04:17:04.375Z,7.94
2023-04-19T04:18:04.396Z,7.94
2023-04-19T04:19:04.391Z,8.06
2023-04-19T04:20:04.295Z,8.25
2023-04-19T04:21:04.292Z,8.19
2023-04-19T04:22:04.446Z,8.31
2023-04-19T04:23:04.400Z,8.25
2023-04-19T04:24:04.454Z,8.19
2023-04-19T04:25:03.827Z,8.19
2023-04-19T04:26:03.728Z,8.12
2023-04-19T04:27:03.726Z,8.12
2023-04-19T04:28:03.899Z,8.12
2023-04-19T04:29:03.905Z,8.31
2023-04-19T04:30:03.940Z,8.38
2023-04-19T04:31:03.971Z,8.38
2023-04-19T04:32:04.014Z,8.50
2023-04-19T04:33:04.105Z,8.44
2023-04-19T04:34:04.227Z,8.19
2023-04-19T04:35:04.073Z,8.12
2023-04-19T04:36:04.234Z,8.31
2023-04-19T04:37:04.131Z,8.31
2023-04-19T04:38:08.504Z,8.44
2023-04-19T04:39:04.220Z,8.31
2023-04-19T04:40:04.320Z,8.38
2023-04-19T04:41:04.382Z,8.25
2023-04-19T04:42:04.073Z,8.38
2023-04-19T04:43:04.146Z,8.38
2023-04-19T04:44:12.377Z,8.44
2023-04-19T04:45:03.994Z,8.75
2023-04-19T04:46:04.197Z,8.62
2023-04-19T04:47:04.313Z,8.81
2023-04-19T04:48:04.355Z,8.94
2023-04-19T04:49:04.394Z,9.00
2023-04-19T04:50:03.516Z,9.00
2023-04-19T04:51:03.777Z,8.94
2023-04-19T04:52:03.912Z,8.88
2023-04-19T04:53:04.076Z,8.75
2023-04-19T04:54:04.179Z,8.62
2023-04-19T04:55:04.076Z,8.62
2023-04-19T04:56:04.171Z,8.56
2023-04-19T04:57:04.261Z,8.56
2023-04-19T04:58:04.145Z,8.56
2023-04-19T04:59:04.307Z,8.44
2023-04-19T05:00:04.480Z,8.31
2023-04-19T05:01:04.423Z,8.19
2023-04-19T05:02:04.487Z,8.25
2023-04-19T05:03:04.689Z,8.25
2023-04-19T05:04:03.714Z,8.19
2023-04-19T05:05:03.708Z,8.12
2023-04-19T05:06:03.753Z,8.00
2023-04-19T05:07:03.657Z,7.88
2023-04-19T05:08:03.911Z,7.81
2023-04-19T05:09:03.915Z,7.81
2023-04-19T05:10:03.994Z,7.94
2023-04-19T05:11:03.998Z,8.12
2023-04-19T05:12:04.064Z,8.19
2023-04-19T05:13:03.984Z,8.12
2023-04-19T05:14:04.072Z,8.00
2023-04-19T05:15:04.079Z,8.06
2023-04-19T05:16:04.001Z,8.00
2023-04-19T05:17:05.817Z,8.00
2023-04-19T05:18:04.266Z,7.94
2023-04-19T05:19:04.249Z,8.25
2023-04-19T05:20:04.162Z,8.19
2023-04-19T05:21:04.158Z,7.94
2023-04-19T05:22:04.476Z,7.75
2023-04-19T05:23:04.311Z,7.81
2023-04-19T05:24:04.485Z,8.25
2023-04-19T05:25:04.464Z,8.44
2023-04-19T05:26:04.160Z,8.44
2023-04-19T05:27:04.148Z,8.38
2023-04-19T05:28:04.240Z,8.62
2023-04-19T05:29:04.244Z,8.44
2023-04-19T05:30:04.381Z,8.50
2023-04-19T05:31:04.413Z,8.56
2023-04-19T05:32:04.316Z,8.56
2023-04-19T05:33:04.512Z,8.62
2023-04-19T05:34:04.319Z,8.62
2023-04-19T05:35:04.404Z,8.69
2023-04-19T05:36:04.477Z,8.56
2023-04-19T05:37:04.561Z,8.81
2023-04-19T05:38:04.486Z,8.81
2023-04-19T05:39:04.480Z,8.88
2023-04-19T05:40:04.474Z,9.12
2023-04-19T05:41:04.461Z,9.25
2023-04-19T05:42:03.512Z,9.19
2023-04-19T05:43:03.606Z,8.88
2023-04-19T05:44:03.596Z,8.88
2023-04-19T05:45:05.450Z,8.50
2023-04-19T05:46:03.630Z,8.38
2023-04-19T05:47:03.668Z,8.25
2023-04-19T05:48:03.711Z,8.19
2023-04-19T05:49:03.760Z,8.25
2023-04-19T05:50:03.828Z,8.31
2023-04-19T05:51:03.846Z,8.38
2023-04-19T05:52:03.757Z,8.38
2023-04-19T05:53:03.838Z,8.38
2023-04-19T05:54:03.756Z,8.44
2023-04-19T05:55:03.743Z,8.38
2023-04-19T05:56:03.692Z,8.31
2023-04-19T05:57:03.755Z,8.38
2023-04-19T05:58:03.748Z,8.56
2023-04-19T05:59:03.774Z,8.62
2023-04-19T06:00:03.814Z,8.56
2023-04-19T06:01:03.857Z,8.50
2023-04-19T06:02:03.852Z,8.62
2023-04-19T06:03:03.988Z,8.81
2023-04-19T06:04:03.990Z,8.94
2023-04-19T06:05:09.661Z,8.94
2023-04-19T06:06:03.870Z,8.94
2023-04-19T06:07:06.134Z,8.81
2023-04-19T06:08:03.907Z,8.44
2023-04-19T06:09:03.916Z,8.56
2023-04-19T06:10:03.903Z,8.69
2023-04-19T06:11:15.680Z,8.62
2023-04-19T06:12:03.993Z,8.50
2023-04-19T06:13:04.072Z,8.44
2023-04-19T06:14:04.076Z,8.38
2023-04-19T06:15:04.144Z,8.31
2023-04-19T06:16:04.239Z,8.31
2023-04-19T06:17:04.385Z,8.19
2023-04-19T06:18:04.267Z,8.25
2023-04-19T06:19:04.226Z,8.19
2023-04-19T06:20:04.167Z,8.06
2023-04-19T06:21:04.386Z,8.00
2023-04-19T06:22:04.464Z,8.06
2023-04-19T06:23:03.594Z,8.25
2023-04-19T06:24:03.698Z,8.19
2023-04-19T06:25:03.583Z,8.12
2023-04-19T06:26:03.591Z,8.06
2023-04-19T06:27:03.755Z,8.00
2023-04-19T06:28:03.740Z,7.94
2023-04-19T06:29:03.753Z,7.94
2023-04-19T06:30:03.757Z,8.19
2023-04-19T06:31:03.771Z,8.25
2023-04-19T06:32:03.777Z,8.06
2023-04-19T06:33:03.895Z,8.25
2023-04-19T06:34:03.919Z,8.19
2023-04-19T06:35:03.917Z,8.31
2023-04-19T06:36:03.871Z,8.31
2023-04-19T06:37:03.841Z,8.38
2023-04-19T06:38:03.837Z,8.56
2023-04-19T06:39:03.827Z,8.88
2023-04-19T06:40:03.825Z,8.94
2023-04-19T06:41:04.072Z,8.88
2023-04-19T06:42:03.993Z,9.19
2023-04-19T06:43:05.794Z,9.31
2023-04-19T06:44:04.069Z,9.19
2023-04-19T06:45:04.098Z,9.06
2023-04-19T06:46:04.081Z,9.25
2023-04-19T06:47:04.148Z,9.12
2023-04-19T06:48:04.180Z,9.06
2023-04-19T06:49:04.236Z,8.62
2023-04-19T06:50:04.241Z,8.31
2023-04-19T06:51:04.232Z,8.12
2023-04-19T06:52:04.323Z,8.31
2023-04-19T06:53:04.901Z,8.25
2023-04-19T06:54:04.316Z,8.00
2023-04-19T06:55:04.313Z,7.81
2023-04-19T06:56:04.581Z,7.94
2023-04-19T06:57:04.326Z,8.19
2023-04-19T06:58:03.600Z,8.19
2023-04-19T06:59:03.604Z,8.19
2023-04-19T07:00:03.581Z,8.25
2023-04-19T07:01:03.779Z,8.25
2023-04-19T07:02:03.891Z,8.12
2023-04-19T07:03:03.772Z,8.06
2023-04-19T07:04:04.023Z,8.00
2023-04-19T07:05:03.748Z,7.75
2023-04-19T07:06:03.747Z,7.69
2023-04-19T07:07:03.745Z,7.62
2023-04-19T07:08:03.929Z,7.62
2023-04-19T07:09:03.831Z,7.62
2023-04-19T07:10:03.755Z,7.81
2023-04-19T07:11:03.831Z,7.94
2023-04-19T07:12:03.846Z,7.94
2023-04-19T07:13:03.775Z,7.94
2023-04-19T07:14:03.893Z,7.94
2023-04-19T07:15:03.985Z,8.00
2023-04-19T07:16:04.018Z,8.19
2023-04-19T07:17:03.894Z,8.31
2023-04-19T07:18:04.011Z,8.50
2023-04-19T07:19:04.888Z,8.56
2023-04-19T07:20:03.927Z,8.25
2023-04-19T07:21:03.928Z,8.38
2023-04-19T07:22:03.905Z,8.56
2023-04-19T07:23:03.916Z,8.44
2023-04-19T07:24:03.905Z,8.50
2023-04-19T07:25:04.075Z,8.81
2023-04-19T07:26:04.056Z,8.81
2023-04-19T07:27:04.165Z,8.56
2023-04-19T07:28:04.152Z,8.56
2023-04-19T07:29:04.189Z,9.12
2023-04-19T07:30:04.228Z,9.38
2023-04-19T07:31:03.585Z,9.50
2023-04-19T07:32:03.712Z,9.56
2023-04-19T07:33:04.441Z,9.50
2023-04-19T07:34:04.399Z,9.44
2023-04-19T07:35:04.312Z,9.19
2023-04-19T07:36:04.307Z,8.81
2023-04-19T07:37:04.312Z,9.06
2023-04-19T07:38:04.391Z,9.06
2023-04-19T07:39:04.304Z,9.19
2023-04-19T07:40:04.406Z,9.50
2023-04-19T07:41:04.381Z,9.56
2023-04-19T07:42:04.544Z,9.44
2023-04-19T07:43:04.474Z,9.56
2023-04-19T07:44:04.488Z,9.50
2023-04-19T07:45:04.415Z,9.56
2023-04-19T07:46:03.603Z,9.50
2023-04-19T07:47:03.523Z,9.50
2023-04-19T07:48:03.524Z,9.44
2023-04-19T07:49:03.516Z,9.56
2023-04-19T07:50:03.599Z,9.69
2023-04-19T07:51:03.597Z,9.81
2023-04-19T07:52:04.468Z,9.62
2023-04-19T07:53:03.677Z,9.56
2023-04-19T07:54:03.617Z,9.56
2023-04-19T07:55:03.517Z,9.44
2023-04-19T07:56:03.498Z,9.31
2023-04-19T07:57:03.600Z,9.38
2023-04-19T07:58:03.587Z,9.50
2023-04-19T07:59:08.101Z,9.50
2023-04-19T08:00:03.507Z,9.50
2023-04-19T08:01:03.728Z,9.56
2023-04-19T08:02:03.694Z,9.69
2023-04-19T08:03:03.828Z,9.81
2023-04-19T08:04:04.032Z,9.88
2023-04-19T08:05:03.771Z,9.62
2023-04-19T08:06:03.697Z,9.50
2023-04-19T08:07:03.578Z,9.56
2023-04-19T08:08:03.844Z,9.56
2023-04-19T08:09:03.683Z,9.44
2023-04-19T08:10:03.628Z,9.56
2023-04-19T08:11:03.585Z,9.50
2023-04-19T08:12:03.599Z,9.31
2023-04-19T08:13:06.119Z,9.38
2023-04-19T08:14:11.763Z,9.38
2023-04-19T08:15:15.145Z,9.62
2023-04-19T08:16:32.064Z,9.94
2023-04-19T08:17:18.943Z,9.94
2023-04-19T08:18:04.079Z,9.88
2023-04-19T08:19:03.912Z,9.94
2023-04-19T08:20:04.081Z,9.94
2023-04-19T08:21:04.080Z,9.94
2023-04-19T08:22:04.018Z,10.06
2023-04-19T08:23:10.791Z,10.12
2023-04-19T08:24:04.102Z,10.19
2023-04-19T08:25:04.141Z,10.12
2023-04-19T08:26:04.148Z,10.06
2023-04-19T08:27:04.234Z,10.06
2023-04-19T08:28:04.227Z,10.00
2023-04-19T08:29:04.311Z,10.00
2023-04-19T08:30:04.219Z,10.00
2023-04-19T08:31:04.240Z,9.88
2023-04-19T08:32:04.373Z,10.06
2023-04-19T08:33:04.345Z,10.31
2023-04-19T08:34:04.326Z,10.31
2023-04-19T08:35:04.410Z,10.31
2023-04-19T08:36:04.411Z,10.31
2023-04-19T08:37:05.039Z,10.31
2023-04-19T08:38:04.406Z,10.31
2023-04-19T08:39:06.846Z,10.25
2023-04-19T08:40:03.607Z,10.31
2023-04-19T08:41:03.596Z,10.38
2023-04-19T08:42:07.290Z,10.50
2023-04-19T08:43:03.507Z,10.56
2023-04-19T08:44:04.477Z,10.56
2023-04-19T08:45:25.873Z,10.69
2023-04-19T08:46:03.603Z,10.62
2023-04-19T08:47:03.514Z,10.75
2023-04-19T08:48:04.613Z,10.69
2023-04-19T08:49:03.603Z,10.75
2023-04-19T08:50:17.039Z,10.88
2023-04-19T08:51:05.706Z,10.81
2023-04-19T08:52:04.472Z,11.00
2023-04-19T08:53:16.072Z,10.94
2023-04-19T08:54:03.614Z,10.88
2023-04-19T08:55:03.528Z,10.75
2023-04-19T08:57:03.672Z,10.50
2023-04-19T08:58:04.250Z,10.75
2023-04-19T08:59:15.544Z,10.81
2023-04-19T09:00:03.747Z,10.88
2023-04-19T09:01:03.802Z,10.81
2023-04-19T09:02:04.018Z,10.75
2023-04-19T09:03:03.973Z,10.75
2023-04-19T09:04:21.419Z,10.69
2023-04-19T09:05:04.066Z,10.62
2023-04-19T09:06:04.138Z,10.69
2023-04-19T09:07:03.842Z,10.69
2023-04-19T09:08:04.078Z,10.62
2023-04-19T09:09:04.070Z,10.50
2023-04-19T09:10:04.577Z,10.50
2023-04-19T09:11:03.985Z,10.56
2023-04-19T09:12:04.054Z,10.50
2023-04-19T09:13:03.915Z,10.69
2023-04-19T09:14:04.237Z,10.69
2023-04-19T09:15:04.072Z,10.94
2023-04-19T09:16:04.448Z,10.94
2023-04-19T09:17:04.313Z,10.94
2023-04-19T09:18:03.590Z,10.81
2023-04-19T09:20:03.597Z,10.75
2023-04-19T09:21:04.229Z,10.88
2023-04-19T09:22:04.224Z,11.19
2023-04-19T09:23:04.306Z,11.12
2023-04-19T09:24:04.306Z,11.31
2023-04-19T09:25:34.260Z,11.38
2023-04-19T09:26:18.991Z,11.19
2023-04-19T09:27:03.743Z,11.00
2023-04-19T09:28:03.744Z,11.19
2023-04-19T09:29:03.907Z,11.19
2023-04-19T09:30:04.099Z,11.25
2023-04-19T09:31:15.472Z,11.25
2023-04-19T09:32:04.359Z,11.12
2023-04-19T09:33:03.690Z,11.19
2023-04-19T09:34:03.769Z,11.19
2023-04-19T09:35:03.686Z,11.12
2023-04-19T09:36:03.684Z,11.06
2023-04-19T09:37:11.855Z,10.94
2023-04-19T09:38:05.946Z,10.88
2023-04-19T09:39:03.687Z,10.88
2023-04-19T09:40:03.668Z,11.06
2023-04-19T09:41:03.762Z,11.19
2023-04-19T09:42:03.676Z,11.19
2023-04-19T09:43:17.750Z,11.44
2023-04-19T09:44:21.711Z,11.50
2023-04-19T09:45:28.120Z,11.62
2023-04-19T09:46:03.635Z,11.62
2023-04-19T09:47:03.661Z,11.62
2023-04-19T09:48:04.149Z,11.56
2023-04-19T09:49:06.602Z,11.56
2023-04-19T09:50:11.734Z,11.56
2023-04-19T09:51:07.552Z,11.56
2023-04-19T09:52:04.164Z,11.88
2023-04-19T09:53:03.982Z,11.94
2023-04-19T09:54:03.982Z,12.06
2023-04-19T09:55:08.958Z,12.00
2023-04-19T09:56:04.564Z,11.88
2023-04-19T09:57:04.153Z,11.94
2023-04-19T09:58:03.682Z,12.12
2023-04-19T09:59:17.339Z,11.94
2023-04-19T10:00:03.665Z,11.94
2023-04-19T10:01:13.893Z,11.94
2023-04-19T10:02:03.680Z,11.94
2023-04-19T10:03:03.715Z,12.06
2023-04-19T10:04:14.759Z,11.94
2023-04-19T10:05:19.449Z,12.06
2023-04-19T10:06:10.425Z,12.12
2023-04-19T10:08:03.705Z,11.88
2023-04-19T10:09:03.746Z,11.75
2023-04-19T10:11:03.934Z,11.56
2023-04-19T10:12:16.052Z,11.50
2023-04-19T10:14:03.917Z,11.62
2023-04-19T10:15:03.996Z,11.50
2023-04-19T10:16:11.999Z,11.44
2023-04-19T10:17:04.187Z,11.50
2023-04-19T10:18:04.120Z,11.62
2023-04-19T10:19:04.079Z,11.50
2023-04-19T10:20:04.242Z,11.38
2023-04-19T10:21:04.174Z,11.12
2023-04-19T10:22:04.150Z,11.06
2023-04-19T10:23:04.311Z,11.00
2023-04-19T10:24:03.509Z,11.00
2023-04-19T10:25:03.695Z,10.94
2023-04-19T10:26:03.588Z,11.00
2023-04-19T10:27:03.699Z,11.00
2023-04-19T10:28:03.756Z,11.00
2023-04-19T10:29:03.756Z,11.06
2023-04-19T10:30:04.599Z,11.19
2023-04-19T10:31:03.804Z,11.12
2023-04-19T10:32:03.877Z,11.12
2023-04-19T10:33:03.881Z,11.25
2023-04-19T10:34:03.676Z,11.31
2023-04-19T10:35:03.776Z,11.31
2023-04-19T10:36:03.592Z,11.38
2023-04-19T10:37:04.063Z,11.50
2023-04-19T10:38:03.680Z,11.56
2023-04-19T10:39:03.833Z,11.62
2023-04-19T10:40:03.701Z,11.81
2023-04-19T10:41:03.617Z,11.94
2023-04-19T10:42:03.586Z,11.94
2023-04-19T10:43:03.588Z,11.88
2023-04-19T10:44:03.677Z,11.81
2023-04-19T10:45:03.674Z,11.88
2023-04-19T10:46:03.627Z,11.88
2023-04-19T10:47:03.586Z,11.88
2023-04-19T10:48:03.776Z,11.81
2023-04-19T10:49:03.687Z,11.81
2023-04-19T10:50:03.848Z,11.81
2023-04-19T10:51:03.750Z,11.94
2023-04-19T10:52:03.837Z,12.06
2023-04-19T10:53:03.773Z,12.06
2023-04-19T10:54:03.755Z,12.19
2023-04-19T10:55:03.841Z,12.25
2023-04-19T10:56:03.926Z,12.19
2023-04-19T10:57:04.007Z,12.19
2023-04-19T10:58:04.873Z,12.38
2023-04-19T10:59:04.071Z,12.50
2023-04-19T11:00:04.232Z,12.44
2023-04-19T11:01:04.256Z,12.25
2023-04-19T11:02:04.494Z,11.94
2023-04-19T11:03:04.447Z,12.06
2023-04-19T11:04:04.691Z,12.25
2023-04-19T11:05:04.617Z,12.31
2023-04-19T11:06:03.513Z,12.38
2023-04-19T11:07:03.599Z,12.44
2023-04-19T11:08:03.593Z,12.50
2023-04-19T11:09:04.318Z,12.25
2023-04-19T11:10:04.325Z,12.00
2023-04-19T11:11:04.400Z,11.75
2023-04-19T11:12:04.441Z,11.62
2023-04-19T11:13:04.387Z,11.56
2023-04-19T11:14:04.386Z,11.69
2023-04-19T11:15:04.390Z,11.75
2023-04-19T11:16:04.385Z,11.81
2023-04-19T11:17:03.554Z,11.75
2023-04-19T11:18:12.318Z,11.94
2023-04-19T11:19:03.584Z,12.31
2023-04-19T11:20:03.684Z,12.31
2023-04-19T11:21:03.848Z,12.44
2023-04-19T11:22:03.757Z,12.44
2023-04-19T11:23:03.830Z,12.31
2023-04-19T11:24:03.905Z,12.25
2023-04-19T11:25:03.789Z,12.25
2023-04-19T11:26:03.829Z,12.19
2023-04-19T11:27:03.901Z,12.12
2023-04-19T11:28:03.919Z,12.06
2023-04-19T11:29:03.503Z,12.06
2023-04-19T11:30:03.602Z,12.12
2023-04-19T11:31:03.723Z,12.19
2023-04-19T11:32:03.677Z,12.19
2023-04-19T11:33:03.864Z,12.06
2023-04-19T11:34:03.999Z,12.19
2023-04-19T11:35:04.472Z,12.25
2023-04-19T11:36:03.503Z,12.25
2023-04-19T11:37:03.500Z,12.25
2023-04-19T11:38:03.584Z,12.56
2023-04-19T11:39:03.599Z,12.81
2023-04-19T11:40:04.970Z,12.75
2023-04-19T11:41:03.660Z,12.56
2023-04-19T11:42:03.747Z,12.44
2023-04-19T11:43:03.671Z,12.38
2023-04-19T11:44:03.686Z,12.38
2023-04-19T11:45:03.835Z,12.44
2023-04-19T11:46:03.838Z,12.38
2023-04-19T11:47:03.937Z,12.31
2023-04-19T11:48:03.971Z,12.38
2023-04-19T11:49:03.987Z,12.31
2023-04-19T11:50:03.989Z,12.19
2023-04-19T11:51:04.001Z,12.12
2023-04-19T11:52:05.781Z,12.00
2023-04-19T11:53:04.231Z,11.94
2023-04-19T11:54:04.238Z,11.88
2023-04-19T11:55:04.266Z,11.75
2023-04-19T11:56:04.301Z,11.88
2023-04-19T11:57:04.396Z,11.81
2023-04-19T11:58:03.529Z,11.88
2023-04-19T11:59:03.586Z,11.94
2023-04-19T12:00:03.751Z,11.94
2023-04-19T12:01:03.950Z,11.94
2023-04-19T12:02:03.861Z,11.94
2023-04-19T12:03:03.913Z,12.19
2023-04-19T12:04:04.055Z,12.12
2023-04-19T12:05:04.004Z,12.00
2023-04-19T12:06:04.094Z,11.94
2023-04-19T12:07:03.923Z,11.94
2023-04-19T12:08:03.924Z,11.88
2023-04-19T12:09:03.903Z,11.88
2023-04-19T12:10:03.925Z,12.00
2023-04-19T12:11:03.959Z,12.06
2023-04-19T12:12:03.994Z,12.31
2023-04-19T12:13:04.230Z,12.38
2023-04-19T12:14:04.159Z,12.69
2023-04-19T12:15:04.172Z,12.56
2023-04-19T12:16:04.236Z,12.56
2023-04-19T12:17:04.385Z,12.44
2023-04-19T12:18:04.273Z,12.44
2023-04-19T12:19:04.236Z,12.31
2023-04-19T12:20:04.392Z,12.25
2023-04-19T12:21:03.905Z,12.31
2023-04-19T12:22:03.919Z,12.38
2023-04-19T12:23:03.927Z,12.38
2023-04-19T12:24:03.904Z,12.50
2023-04-19T12:25:03.900Z,12.56
2023-04-19T12:26:04.039Z,12.50
2023-04-19T12:27:04.025Z,12.44
2023-04-19T12:28:04.003Z,12.44
2023-04-19T12:29:04.798Z,12.38
2023-04-19T12:30:03.992Z,12.31
2023-04-19T12:31:03.986Z,12.31
2023-04-19T12:32:03.947Z,12.38
2023-04-19T12:33:04.068Z,12.38
2023-04-19T12:34:04.879Z,12.38
2023-04-19T12:35:03.852Z,12.50
2023-04-19T12:36:03.753Z,12.88
2023-04-19T12:37:03.830Z,13.12
2023-04-19T12:38:03.839Z,13.06
2023-04-19T12:39:03.929Z,12.88
2023-04-19T12:40:03.818Z,12.69
2023-04-19T12:41:03.911Z,12.62
2023-04-19T12:42:03.917Z,12.62
2023-04-19T12:43:03.824Z,12.69
2023-04-19T12:44:03.845Z,12.88
2023-04-19T12:45:03.826Z,12.69
2023-04-19T12:46:04.025Z,12.69
2023-04-19T12:47:03.821Z,12.69
2023-04-19T12:48:03.872Z,12.50
2023-04-19T12:49:03.828Z,12.50
2023-04-19T12:50:03.994Z,12.50
2023-04-19T12:51:04.068Z,12.50
2023-04-19T12:52:04.067Z,12.44
2023-04-19T12:53:05.200Z,12.38
2023-04-19T12:54:04.242Z,12.38
2023-04-19T12:55:04.229Z,12.31
2023-04-19T12:56:04.133Z,12.25
2023-04-19T12:57:04.425Z,12.19
2023-04-19T12:58:04.348Z,12.25
2023-04-19T12:59:05.582Z,12.31
2023-04-19T13:00:03.802Z,12.25
2023-04-19T13:01:03.811Z,12.25
2023-04-19T13:02:03.946Z,12.38
2023-04-19T13:03:03.941Z,12.56
2023-04-19T13:04:03.911Z,12.75
2023-04-19T13:05:03.987Z,12.94
2023-04-19T13:06:03.897Z,13.00
2023-04-19T13:07:04.022Z,12.88
2023-04-19T13:08:03.923Z,12.81
2023-04-19T13:09:07.793Z,12.75